sensor_id;sensor_type;location;lat;lon;timestamp;pressure;altitude;pressure_sealevel;temperature;humidity
10606;BME280;5350;42.698;23.148;2023-03-22T00:02:06;93288.78;;;10.12;100.00
10606;BME280;5350;42.698;23.148;2023-03-22T00:04:32;93297.94;;;10.15;100.00
10606;BME280;5350;42.698;23.148;2023-03-22T00:06:59;93297.44;;;10.13;100.00
10606;BME280;5350;42.698;23.148;2023-03-22T00:09:26;93303.25;;;10.10;100.00
10606;BME280;5350;42.698;23.148;2023-03-22T00:11:52;93300.44;;;10.06;100.00
10606;BME280;5350;42.698;23.148;2023-03-22T00:14:20;93290.53;;;10.03;100.00
10606;BME280;5350;42.698;23.148;2023-03-22T00:16:47;93297.75;;;10.11;100.00
10606;BME280;5350;42.698;23.148;2023-03-22T00:19:14;93292.97;;;10.13;100.00
10606;BME280;5350;42.698;23.148;2023-03-22T00:21:42;93276.31;;;10.04;100.00
10606;BME280;5350;42.698;23.148;2023-03-22T00:24:09;93299.78;;;10.14;100.00
10606;BME280;5350;42.698;23.148;2023-03-22T00:26:35;93303.50;;;10.13;100.00
10606;BME280;5350;42.698;23.148;2023-03-22T00:29:02;93302.22;;;10.11;100.00
10606;BME280;5350;42.698;23.148;2023-03-22T00:31:30;93290.13;;;10.10;100.00
10606;BME280;5350;42.698;23.148;2023-03-22T00:33:57;93303.38;;;10.05;100.00
10606;BME280;5350;42.698;23.148;2023-03-22T00:36:24;93304.16;;;10.05;100.00
10606;BME280;5350;42.698;23.148;2023-03-22T00:38:51;93283.91;;;9.92;100.00
10606;BME280;5350;42.698;23.148;2023-03-22T00:41:19;93291.28;;;10.04;100.00
10606;BME280;5350;42.698;23.148;2023-03-22T00:43:47;93291.69;;;9.97;100.00
10606;BME280;5350;42.698;23.148;2023-03-22T00:46:15;93292.75;;;9.96;100.00
10606;BME280;5350;42.698;23.148;2023-03-22T00:48:44;93291.97;;;9.96;100.00
10606;BME280;5350;42.698;23.148;2023-03-22T00:51:11;93295.38;;;9.96;100.00
10606;BME280;5350;42.698;23.148;2023-03-22T00:53:38;93278.53;;;9.97;100.00
10606;BME280;5350;42.698;23.148;2023-03-22T00:56:06;93287.31;;;9.93;100.00
10606;BME280;5350;42.698;23.148;2023-03-22T00:58:33;93285.56;;;9.88;100.00
10606;BME280;5350;42.698;23.148;2023-03-22T01:00:59;93286.84;;;9.91;100.00
10606;BME280;5350;42.698;23.148;2023-03-22T01:03:26;93284.47;;;9.89;100.00
10606;BME280;5350;42.698;23.148;2023-03-22T01:05:54;93282.81;;;9.93;100.00
10606;BME280;5350;42.698;23.148;2023-03-22T01:08:21;93279.63;;;9.83;100.00
10606;BME280;5350;42.698;23.148;2023-03-22T01:10:48;93286.81;;;9.77;100.00
10606;BME280;5350;42.698;23.148;2023-03-22T01:13:15;93283.69;;;9.75;100.00
10606;BME280;5350;42.698;23.148;2023-03-22T01:15:42;93280.69;;;9.68;100.00
10606;BME280;5350;42.698;23.148;2023-03-22T01:18:09;93278.25;;;9.58;100.00
10606;BME280;5350;42.698;23.148;2023-03-22T01:20:36;93279.41;;;9.52;100.00
10606;BME280;5350;42.698;23.148;2023-03-22T01:23:04;93279.22;;;9.48;100.00
10606;BME280;5350;42.698;23.148;2023-03-22T01:25:31;93275.13;;;9.42;100.00
10606;BME280;5350;42.698;23.148;2023-03-22T01:27:58;93268.53;;;9.45;100.00
10606;BME280;5350;42.698;23.148;2023-03-22T01:30:27;93268.53;;;9.45;100.00
10606;BME280;5350;42.698;23.148;2023-03-22T01:32:53;93269.56;;;9.44;100.00
10606;BME280;5350;42.698;23.148;2023-03-22T01:35:20;93260.84;;;9.48;100.00
10606;BME280;5350;42.698;23.148;2023-03-22T01:37:47;93261.69;;;9.44;100.00
10606;BME280;5350;42.698;23.148;2023-03-22T01:40:15;93262.47;;;9.44;100.00
10606;BME280;5350;42.698;23.148;2023-03-22T01:42:42;93267.13;;;9.47;100.00
10606;BME280;5350;42.698;23.148;2023-03-22T01:45:30;93233.28;;;9.19;100.00
10606;BME280;5350;42.698;23.148;2023-03-22T01:48:01;93256.34;;;9.35;100.00
10606;BME280;5350;42.698;23.148;2023-03-22T01:50:29;93259.63;;;9.27;100.00
10606;BME280;5350;42.698;23.148;2023-03-22T01:52:57;93252.94;;;9.35;100.00
10606;BME280;5350;42.698;23.148;2023-03-22T01:55:27;93252.94;;;9.35;100.00
10606;BME280;5350;42.698;23.148;2023-03-22T01:57:54;93255.38;;;9.31;100.00
10606;BME280;5350;42.698;23.148;2023-03-22T02:00:21;93258.78;;;9.32;100.00
10606;BME280;5350;42.698;23.148;2023-03-22T02:02:49;93257.31;;;9.39;100.00
10606;BME280;5350;42.698;23.148;2023-03-22T02:05:17;93257.72;;;9.46;100.00
10606;BME280;5350;42.698;23.148;2023-03-22T02:07:47;93257.81;;;9.41;100.00
10606;BME280;5350;42.698;23.148;2023-03-22T02:10:16;93257.22;;;9.44;100.00
10606;BME280;5350;42.698;23.148;2023-03-22T02:12:56;93254.31;;;9.46;100.00
10606;BME280;5350;42.698;23.148;2023-03-22T02:15:28;93260.53;;;9.50;100.00
10606;BME280;5350;42.698;23.148;2023-03-22T02:21:20;93260.94;;;9.57;100.00
10606;BME280;5350;42.698;23.148;2023-03-22T02:27:15;93258.53;;;9.15;100.00
10606;BME280;5350;42.698;23.148;2023-03-22T02:29:57;93255.59;;;9.03;100.00
10606;BME280;5350;42.698;23.148;2023-03-22T02:35:42;93259.03;;;8.84;100.00
10606;BME280;5350;42.698;23.148;2023-03-22T02:38:28;93266.97;;;8.79;100.00
10606;BME280;5350;42.698;23.148;2023-03-22T02:41:08;93268.94;;;8.88;100.00
10606;BME280;5350;42.698;23.148;2023-03-22T02:43:40;93266.53;;;8.91;100.00
10606;BME280;5350;42.698;23.148;2023-03-22T02:46:16;93270.34;;;8.99;100.00
10606;BME280;5350;42.698;23.148;2023-03-22T02:48:51;93265.50;;;9.06;100.00
10606;BME280;5350;42.698;23.148;2023-03-22T02:51:23;93270.09;;;9.14;100.00
10606;BME280;5350;42.698;23.148;2023-03-22T02:53:52;93275.47;;;9.22;100.00
10606;BME280;5350;42.698;23.148;2023-03-22T02:56:23;93278.19;;;9.31;100.00
10606;BME280;5350;42.698;23.148;2023-03-22T02:58:53;93275.00;;;9.34;100.00
10606;BME280;5350;42.698;23.148;2023-03-22T03:01:24;93274.53;;;9.32;100.00
10606;BME280;5350;42.698;23.148;2023-03-22T03:03:55;93284.44;;;9.35;100.00
10606;BME280;5350;42.698;23.148;2023-03-22T03:06:26;93283.88;;;9.38;100.00
10606;BME280;5350;42.698;23.148;2023-03-22T03:08:55;93281.25;;;9.38;100.00
10606;BME280;5350;42.698;23.148;2023-03-22T03:11:31;93279.97;;;9.35;100.00
10606;BME280;5350;42.698;23.148;2023-03-22T03:13:58;93286.59;;;9.46;100.00
10606;BME280;5350;42.698;23.148;2023-03-22T03:16:26;93277.25;;;9.40;100.00
10606;BME280;5350;42.698;23.148;2023-03-22T03:18:58;93285.22;;;9.35;100.00
10606;BME280;5350;42.698;23.148;2023-03-22T03:21:31;93284.44;;;9.35;100.00
10606;BME280;5350;42.698;23.148;2023-03-22T03:24:11;93289.09;;;9.38;100.00
10606;BME280;5350;42.698;23.148;2023-03-22T03:26:48;93288.13;;;9.34;100.00
10606;BME280;5350;42.698;23.148;2023-03-22T03:29:21;93284.66;;;9.38;100.00
10606;BME280;5350;42.698;23.148;2023-03-22T03:31:57;93285.13;;;9.40;100.00
10606;BME280;5350;42.698;23.148;2023-03-22T03:34:32;93285.63;;;9.42;100.00
10606;BME280;5350;42.698;23.148;2023-03-22T03:37:04;93289.09;;;9.38;100.00
10606;BME280;5350;42.698;23.148;2023-03-22T03:39:36;93293.69;;;9.32;100.00
10606;BME280;5350;42.698;23.148;2023-03-22T03:42:10;93290.84;;;9.29;100.00
10606;BME280;5350;42.698;23.148;2023-03-22T03:44:38;93297.53;;;9.21;100.00
10606;BME280;5350;42.698;23.148;2023-03-22T03:47:06;93298.84;;;9.05;100.00
10606;BME280;5350;42.698;23.148;2023-03-22T03:49:34;93296.97;;;9.06;100.00
10606;BME280;5350;42.698;23.148;2023-03-22T03:52:03;93294.81;;;8.94;100.00
10606;BME280;5350;42.698;23.148;2023-03-22T03:54:30;93295.38;;;8.91;100.00
10606;BME280;5350;42.698;23.148;2023-03-22T03:56:57;93298.34;;;8.84;100.00
10606;BME280;5350;42.698;23.148;2023-03-22T03:59:25;93300.72;;;8.86;100.00
10606;BME280;5350;42.698;23.148;2023-03-22T04:01:52;93296.94;;;8.92;100.00
10606;BME280;5350;42.698;23.148;2023-03-22T04:04:21;93303.09;;;8.82;100.00
10606;BME280;5350;42.698;23.148;2023-03-22T04:06:51;93307.94;;;8.75;100.00
10606;BME280;5350;42.698;23.148;2023-03-22T04:09:18;93306.31;;;8.79;100.00
10606;BME280;5350;42.698;23.148;2023-03-22T04:11:45;93305.63;;;8.74;100.00
10606;BME280;5350;42.698;23.148;2023-03-22T04:14:12;93319.00;;;8.72;100.00
10606;BME280;5350;42.698;23.148;2023-03-22T04:16:40;93312.63;;;8.78;100.00
10606;BME280;5350;42.698;23.148;2023-03-22T04:19:06;93318.09;;;8.82;100.00
10606;BME280;5350;42.698;23.148;2023-03-22T04:21:33;93312.50;;;8.89;100.00
10606;BME280;5350;42.698;23.148;2023-03-22T04:24:00;93314.47;;;8.97;100.00
10606;BME280;5350;42.698;23.148;2023-03-22T04:26:27;93307.63;;;8.96;100.00
10606;BME280;5350;42.698;23.148;2023-03-22T04:28:53;93311.25;;;9.00;100.00
10606;BME280;5350;42.698;23.148;2023-03-22T04:31:21;93317.84;;;8.97;100.00
10606;BME280;5350;42.698;23.148;2023-03-22T04:33:49;93316.00;;;8.98;100.00
10606;BME280;5350;42.698;23.148;2023-03-22T04:36:19;93310.41;;;8.85;100.00
10606;BME280;5350;42.698;23.148;2023-03-22T04:38:46;93307.25;;;8.89;100.00
10606;BME280;5350;42.698;23.148;2023-03-22T04:41:13;93312.75;;;8.87;100.00
10606;BME280;5350;42.698;23.148;2023-03-22T04:43:40;93312.88;;;8.96;100.00
10606;BME280;5350;42.698;23.148;2023-03-22T04:46:07;93319.25;;;9.08;100.00
10606;BME280;5350;42.698;23.148;2023-03-22T04:48:37;93321.69;;;9.05;100.00
10606;BME280;5350;42.698;23.148;2023-03-22T04:51:07;93322.66;;;9.09;100.00
10606;BME280;5350;42.698;23.148;2023-03-22T04:53:35;93318.56;;;9.03;100.00
10606;BME280;5350;42.698;23.148;2023-03-22T04:56:04;93321.41;;;8.88;100.00
10606;BME280;5350;42.698;23.148;2023-03-22T04:58:31;93318.44;;;8.75;100.00
10606;BME280;5350;42.698;23.148;2023-03-22T05:00:58;93325.53;;;8.75;100.00
10606;BME280;5350;42.698;23.148;2023-03-22T05:03:25;93328.63;;;8.77;100.00
10606;BME280;5350;42.698;23.148;2023-03-22T05:05:53;93321.97;;;8.47;100.00
10606;BME280;5350;42.698;23.148;2023-03-22T05:08:22;93323.09;;;8.60;100.00
10606;BME280;5350;42.698;23.148;2023-03-22T05:10:50;93329.78;;;8.71;100.00
10606;BME280;5350;42.698;23.148;2023-03-22T05:13:17;93332.19;;;8.67;100.00
10606;BME280;5350;42.698;23.148;2023-03-22T05:15:44;93340.41;;;8.79;100.00
10606;BME280;5350;42.698;23.148;2023-03-22T05:18:12;93329.34;;;8.82;100.00
10606;BME280;5350;42.698;23.148;2023-03-22T05:20:39;93338.97;;;8.87;100.00
10606;BME280;5350;42.698;23.148;2023-03-22T05:23:06;93337.06;;;8.93;100.00
10606;BME280;5350;42.698;23.148;2023-03-22T05:25:35;93338.97;;;9.06;100.00
10606;BME280;5350;42.698;23.148;2023-03-22T05:28:03;93337.19;;;9.20;100.00
10606;BME280;5350;42.698;23.148;2023-03-22T05:30:30;93349.34;;;9.29;100.00
10606;BME280;5350;42.698;23.148;2023-03-22T05:32:58;93336.66;;;9.36;100.00
10606;BME280;5350;42.698;23.148;2023-03-22T05:35:27;93350.16;;;9.43;100.00
10606;BME280;5350;42.698;23.148;2023-03-22T05:37:54;93348.63;;;9.42;100.00
10606;BME280;5350;42.698;23.148;2023-03-22T05:40:21;93353.50;;;9.49;100.00
10606;BME280;5350;42.698;23.148;2023-03-22T05:42:49;93352.22;;;9.46;100.00
10606;BME280;5350;42.698;23.148;2023-03-22T05:45:16;93352.34;;;9.55;100.00
10606;BME280;5350;42.698;23.148;2023-03-22T05:47:43;93357.81;;;9.58;100.00
10606;BME280;5350;42.698;23.148;2023-03-22T05:50:12;93362.69;;;9.65;100.00
10606;BME280;5350;42.698;23.148;2023-03-22T05:52:39;93364.44;;;9.70;100.00
10606;BME280;5350;42.698;23.148;2023-03-22T05:55:07;93361.44;;;9.76;100.00
10606;BME280;5350;42.698;23.148;2023-03-22T05:57:34;93365.81;;;9.81;100.00
10606;BME280;5350;42.698;23.148;2023-03-22T06:00:03;93373.03;;;9.89;100.00
10606;BME280;5350;42.698;23.148;2023-03-22T06:02:35;93369.53;;;9.93;100.00
10606;BME280;5350;42.698;23.148;2023-03-22T06:05:02;93378.78;;;10.04;100.00
10606;BME280;5350;42.698;23.148;2023-03-22T06:07:29;93380.13;;;10.02;100.00
10606;BME280;5350;42.698;23.148;2023-03-22T06:09:55;93386.59;;;10.09;100.00
10606;BME280;5350;42.698;23.148;2023-03-22T06:12:22;93389.63;;;10.16;100.00
10606;BME280;5350;42.698;23.148;2023-03-22T06:14:50;93383.78;;;10.19;100.00
10606;BME280;5350;42.698;23.148;2023-03-22T06:17:18;93384.38;;;10.16;100.00
10606;BME280;5350;42.698;23.148;2023-03-22T06:19:45;93390.63;;;10.34;100.00
10606;BME280;5350;42.698;23.148;2023-03-22T06:22:12;93390.72;;;10.42;100.00
10606;BME280;5350;42.698;23.148;2023-03-22T06:24:39;93386.44;;;10.47;100.00
10606;BME280;5350;42.698;23.148;2023-03-22T06:27:07;93379.59;;;10.45;100.00
10606;BME280;5350;42.698;23.148;2023-03-22T06:29:34;93391.38;;;10.62;100.00
10606;BME280;5350;42.698;23.148;2023-03-22T06:32:01;93392.13;;;10.76;100.00
10606;BME280;5350;42.698;23.148;2023-03-22T06:34:30;93394.56;;;10.86;100.00
10606;BME280;5350;42.698;23.148;2023-03-22T06:36:57;93401.25;;;10.92;100.00
10606;BME280;5350;42.698;23.148;2023-03-22T06:39:24;93397.75;;;10.96;100.00
10606;BME280;5350;42.698;23.148;2023-03-22T06:41:51;93403.59;;;10.93;100.00
10606;BME280;5350;42.698;23.148;2023-03-22T06:44:17;93402.63;;;11.03;100.00
10606;BME280;5350;42.698;23.148;2023-03-22T06:46:44;93401.81;;;11.02;100.00
10606;BME280;5350;42.698;23.148;2023-03-22T06:49:11;93399.56;;;11.09;100.00
10606;BME280;5350;42.698;23.148;2023-03-22T06:51:39;93409.66;;;11.16;100.00
10606;BME280;5350;42.698;23.148;2023-03-22T06:54:06;93414.84;;;11.21;100.00
10606;BME280;5350;42.698;23.148;2023-03-22T06:56:33;93405.44;;;11.28;100.00
10606;BME280;5350;42.698;23.148;2023-03-22T06:58:59;93411.75;;;11.41;100.00
10606;BME280;5350;42.698;23.148;2023-03-22T07:01:26;93412.34;;;11.38;100.00
10606;BME280;5350;42.698;23.148;2023-03-22T07:03:53;93414.09;;;11.43;100.00
10606;BME280;5350;42.698;23.148;2023-03-22T07:06:20;93409.41;;;11.40;100.00
10606;BME280;5350;42.698;23.148;2023-03-22T07:08:48;93408.63;;;11.39;100.00
10606;BME280;5350;42.698;23.148;2023-03-22T07:11:15;93408.69;;;11.48;100.00
10606;BME280;5350;42.698;23.148;2023-03-22T07:13:41;93412.59;;;11.50;100.00
10606;BME280;5350;42.698;23.148;2023-03-22T07:16:09;93416.84;;;11.38;100.00
10606;BME280;5350;42.698;23.148;2023-03-22T07:18:36;93413.63;;;11.41;100.00
10606;BME280;5350;42.698;23.148;2023-03-22T07:21:03;93424.31;;;11.44;100.00
10606;BME280;5350;42.698;23.148;2023-03-22T07:23:30;93429.69;;;11.39;100.00
10606;BME280;5350;42.698;23.148;2023-03-22T07:25:59;93433.09;;;11.40;100.00
10606;BME280;5350;42.698;23.148;2023-03-22T07:28:26;93454.81;;;11.23;100.00
10606;BME280;5350;42.698;23.148;2023-03-22T07:30:59;93438.72;;;11.24;100.00
10606;BME280;5350;42.698;23.148;2023-03-22T07:33:25;93444.19;;;11.28;100.00
10606;BME280;5350;42.698;23.148;2023-03-22T07:35:52;93441.91;;;11.35;100.00
10606;BME280;5350;42.698;23.148;2023-03-22T07:38:19;93443.47;;;11.36;100.00
10606;BME280;5350;42.698;23.148;2023-03-22T07:40:46;93444.91;;;11.42;100.00
10606;BME280;5350;42.698;23.148;2023-03-22T07:43:16;93455.19;;;11.30;100.00
10606;BME280;5350;42.698;23.148;2023-03-22T07:45:42;93448.84;;;11.31;100.00
10606;BME280;5350;42.698;23.148;2023-03-22T07:48:09;93457.91;;;11.39;100.00
10606;BME280;5350;42.698;23.148;2023-03-22T07:50:36;93463.94;;;11.39;100.00
10606;BME280;5350;42.698;23.148;2023-03-22T07:53:03;93462.88;;;11.40;100.00
10606;BME280;5350;42.698;23.148;2023-03-22T07:55:30;93460.81;;;11.37;100.00
10606;BME280;5350;42.698;23.148;2023-03-22T07:57:57;93466.56;;;11.39;100.00
10606;BME280;5350;42.698;23.148;2023-03-22T08:00:25;93477.00;;;11.44;100.00
10606;BME280;5350;42.698;23.148;2023-03-22T08:02:51;93470.84;;;11.49;100.00
10606;BME280;5350;42.698;23.148;2023-03-22T08:05:18;93474.75;;;11.38;100.00
10606;BME280;5350;42.698;23.148;2023-03-22T08:07:46;93463.09;;;11.30;100.00
10606;BME280;5350;42.698;23.148;2023-03-22T08:10:13;93470.03;;;11.26;100.00
10606;BME280;5350;42.698;23.148;2023-03-22T08:12:40;93476.97;;;11.22;100.00
10606;BME280;5350;42.698;23.148;2023-03-22T08:15:08;93476.66;;;11.10;100.00
10606;BME280;5350;42.698;23.148;2023-03-22T08:17:37;93475.59;;;11.11;100.00
10606;BME280;5350;42.698;23.148;2023-03-22T08:20:05;93482.94;;;11.00;100.00
10606;BME280;5350;42.698;23.148;2023-03-22T08:22:33;93473.75;;;10.98;100.00
10606;BME280;5350;42.698;23.148;2023-03-22T08:25:00;93476.88;;;11.00;100.00
10606;BME280;5350;42.698;23.148;2023-03-22T08:27:27;93476.66;;;11.10;100.00
10606;BME280;5350;42.698;23.148;2023-03-22T08:29:54;93480.28;;;11.00;100.00
10606;BME280;5350;42.698;23.148;2023-03-22T08:32:21;93480.81;;;10.89;100.00
10606;BME280;5350;42.698;23.148;2023-03-22T08:34:49;93473.41;;;10.91;100.00
10606;BME280;5350;42.698;23.148;2023-03-22T08:37:17;93479.91;;;10.93;100.00
10606;BME280;5350;42.698;23.148;2023-03-22T08:39:44;93483.72;;;10.74;100.00
10606;BME280;5350;42.698;23.148;2023-03-22T08:42:11;93488.50;;;10.72;100.00
10606;BME280;5350;42.698;23.148;2023-03-22T08:44:38;93486.94;;;10.57;100.00
10606;BME280;5350;42.698;23.148;2023-03-22T08:47:05;93486.16;;;10.57;100.00
10606;BME280;5350;42.698;23.148;2023-03-22T08:49:32;93486.53;;;10.50;100.00
10606;BME280;5350;42.698;23.148;2023-03-22T08:52:00;93485.78;;;10.63;100.00
10606;BME280;5350;42.698;23.148;2023-03-22T08:54:26;93492.69;;;10.59;100.00
10606;BME280;5350;42.698;23.148;2023-03-22T08:56:57;93493.84;;;10.67;100.00
10606;BME280;5350;42.698;23.148;2023-03-22T08:59:25;93486.38;;;10.74;100.00
10606;BME280;5350;42.698;23.148;2023-03-22T09:01:52;93493.47;;;10.73;100.00
10606;BME280;5350;42.698;23.148;2023-03-22T09:04:18;93494.13;;;10.79;100.00
10606;BME280;5350;42.698;23.148;2023-03-22T09:06:45;93496.97;;;10.69;100.00
10606;BME280;5350;42.698;23.148;2023-03-22T09:09:13;93504.78;;;10.74;100.00
10606;BME280;5350;42.698;23.148;2023-03-22T09:11:40;93505.75;;;10.78;100.00
10606;BME280;5350;42.698;23.148;2023-03-22T09:14:07;93504.75;;;10.87;100.00
10606;BME280;5350;42.698;23.148;2023-03-22T09:16:34;93499.50;;;11.01;100.00
10606;BME280;5350;42.698;23.148;2023-03-22T09:19:01;93509.34;;;10.95;100.00
10606;BME280;5350;42.698;23.148;2023-03-22T09:21:28;93511.41;;;10.98;100.00
10606;BME280;5350;42.698;23.148;2023-03-22T09:23:55;93498.31;;;10.93;100.00
10606;BME280;5350;42.698;23.148;2023-03-22T09:26:23;93504.38;;;10.94;100.00
10606;BME280;5350;42.698;23.148;2023-03-22T09:28:51;93499.22;;;10.89;100.00
10606;BME280;5350;42.698;23.148;2023-03-22T09:31:18;93500.38;;;10.96;100.00
10606;BME280;5350;42.698;23.148;2023-03-22T09:33:45;93493.63;;;11.04;100.00
10606;BME280;5350;42.698;23.148;2023-03-22T09:36:11;93500.34;;;11.10;100.00
10606;BME280;5350;42.698;23.148;2023-03-22T09:38:39;93497.31;;;11.16;100.00
10606;BME280;5350;42.698;23.148;2023-03-22T09:41:09;93497.63;;;11.15;100.00
10606;BME280;5350;42.698;23.148;2023-03-22T09:43:41;93498.91;;;11.17;100.00
10606;BME280;5350;42.698;23.148;2023-03-22T09:46:12;93500.22;;;11.28;100.00
10606;BME280;5350;42.698;23.148;2023-03-22T09:48:42;93502.59;;;11.16;100.00
10606;BME280;5350;42.698;23.148;2023-03-22T09:51:22;93505.72;;;11.18;100.00
10606;BME280;5350;42.698;23.148;2023-03-22T09:53:53;93505.34;;;11.11;100.00
10606;BME280;5350;42.698;23.148;2023-03-22T09:56:22;93505.91;;;11.22;100.00
10606;BME280;5350;42.698;23.148;2023-03-22T09:58:57;93501.06;;;11.02;100.00
10606;BME280;5350;42.698;23.148;2023-03-22T10:01:29;93506.91;;;10.99;100.00
10606;BME280;5350;42.698;23.148;2023-03-22T10:04:14;93508.47;;;11.00;100.00
10606;BME280;5350;42.698;23.148;2023-03-22T10:06:48;93511.22;;;10.95;100.00
10606;BME280;5350;42.698;23.148;2023-03-22T10:09:23;93511.97;;;10.95;100.00
10606;BME280;5350;42.698;23.148;2023-03-22T10:11:57;93503.00;;;10.96;100.00
10606;BME280;5350;42.698;23.148;2023-03-22T10:14:33;93510.59;;;10.98;100.00
10606;BME280;5350;42.698;23.148;2023-03-22T10:17:03;93505.75;;;11.05;100.00
10606;BME280;5350;42.698;23.148;2023-03-22T10:19:34;93503.47;;;11.12;100.00
10606;BME280;5350;42.698;23.148;2023-03-22T10:22:03;93505.53;;;11.15;100.00
10606;BME280;5350;42.698;23.148;2023-03-22T10:24:33;93518.00;;;11.23;100.00
10606;BME280;5350;42.698;23.148;2023-03-22T10:27:01;93511.53;;;11.29;100.00
10606;BME280;5350;42.698;23.148;2023-03-22T10:29:33;93518.66;;;11.42;100.00
10606;BME280;5350;42.698;23.148;2023-03-22T10:32:12;93517.88;;;11.42;100.00
10606;BME280;5350;42.698;23.148;2023-03-22T10:34:39;93512.09;;;11.53;100.00
10606;BME280;5350;42.698;23.148;2023-03-22T10:37:12;93505.50;;;11.64;100.00
10606;BME280;5350;42.698;23.148;2023-03-22T10:39:43;93499.28;;;11.74;100.00
10606;BME280;5350;42.698;23.148;2023-03-22T10:42:12;93508.44;;;11.76;100.00
10606;BME280;5350;42.698;23.148;2023-03-22T10:44:45;93500.41;;;11.81;100.00
10606;BME280;5350;42.698;23.148;2023-03-22T10:47:14;93491.97;;;11.71;100.00
10606;BME280;5350;42.698;23.148;2023-03-22T10:49:45;93520.22;;;11.79;100.00
10606;BME280;5350;42.698;23.148;2023-03-22T10:52:25;93506.78;;;11.80;100.00
10606;BME280;5350;42.698;23.148;2023-03-22T10:54:56;93507.25;;;11.82;100.00
10606;BME280;5350;42.698;23.148;2023-03-22T10:57:23;93510.47;;;11.79;100.00
10606;BME280;5350;42.698;23.148;2023-03-22T10:59:54;93514.88;;;11.70;100.00
10606;BME280;5350;42.698;23.148;2023-03-22T11:02:23;93507.28;;;11.69;100.00
10606;BME280;5350;42.698;23.148;2023-03-22T11:04:53;93516.19;;;11.59;100.00
10606;BME280;5350;42.698;23.148;2023-03-22T11:07:30;93508.78;;;11.48;100.00
10606;BME280;5350;42.698;23.148;2023-03-22T11:10:11;93505.47;;;11.42;100.00
10606;BME280;5350;42.698;23.148;2023-03-22T11:12:41;93504.69;;;11.42;100.00
10606;BME280;5350;42.698;23.148;2023-03-22T11:15:19;93504.28;;;11.48;100.00
10606;BME280;5350;42.698;23.148;2023-03-22T11:17:48;93508.50;;;11.49;100.00
10606;BME280;5350;42.698;23.148;2023-03-22T11:20:16;93512.09;;;11.53;100.00
10606;BME280;5350;42.698;23.148;2023-03-22T11:22:45;93507.03;;;11.43;100.00
10606;BME280;5350;42.698;23.148;2023-03-22T11:25:15;93507.41;;;11.50;100.00
10606;BME280;5350;42.698;23.148;2023-03-22T11:27:52;93512.84;;;11.54;100.00
10606;BME280;5350;42.698;23.148;2023-03-22T11:30:24;93506.22;;;11.56;100.00
10606;BME280;5350;42.698;23.148;2023-03-22T11:33:08;93503.97;;;11.63;100.00
10606;BME280;5350;42.698;23.148;2023-03-22T11:35:43;93495.28;;;11.63;100.00
10606;BME280;5350;42.698;23.148;2023-03-22T11:38:21;93492.94;;;11.61;100.00
10606;BME280;5350;42.698;23.148;2023-03-22T11:40:53;93496.66;;;11.60;100.00
10606;BME280;5350;42.698;23.148;2023-03-22T11:43:23;93494.00;;;11.74;100.00
10606;BME280;5350;42.698;23.148;2023-03-22T11:45:55;93488.91;;;11.77;100.00
10606;BME280;5350;42.698;23.148;2023-03-22T11:48:24;93493.22;;;11.73;100.00
10606;BME280;5350;42.698;23.148;2023-03-22T11:50:52;93486.03;;;11.87;100.00
10606;BME280;5350;42.698;23.148;2023-03-22T11:53:22;93485.56;;;11.85;100.00
10606;BME280;5350;42.698;23.148;2023-03-22T11:55:52;93470.78;;;11.62;100.00
10606;BME280;5350;42.698;23.148;2023-03-22T11:58:24;93488.31;;;11.80;100.00
10606;BME280;5350;42.698;23.148;2023-03-22T12:00:57;93483.72;;;11.86;100.00
10606;BME280;5350;42.698;23.148;2023-03-22T12:03:28;93491.25;;;12.01;100.00
10606;BME280;5350;42.698;23.148;2023-03-22T12:05:57;93490.91;;;11.94;100.00
10606;BME280;5350;42.698;23.148;2023-03-22T12:08:33;93487.94;;;11.73;100.00
10606;BME280;5350;42.698;23.148;2023-03-22T12:11:05;93485.69;;;11.80;100.00
10606;BME280;5350;42.698;23.148;2023-03-22T12:13:38;93488.09;;;11.41;100.00
10606;BME280;5350;42.698;23.148;2023-03-22T12:16:12;93485.22;;;11.29;100.00
10606;BME280;5350;42.698;23.148;2023-03-22T12:18:44;93487.75;;;11.34;100.00
10606;BME280;5350;42.698;23.148;2023-03-22T12:21:12;93479.63;;;11.44;100.00
10606;BME280;5350;42.698;23.148;2023-03-22T12:23:40;93483.41;;;11.52;100.00
10606;BME280;5350;42.698;23.148;2023-03-22T12:26:13;93491.16;;;11.70;100.00
10606;BME280;5350;42.698;23.148;2023-03-22T12:28:44;93485.06;;;11.83;100.00
10606;BME280;5350;42.698;23.148;2023-03-22T12:31:16;93486.81;;;11.88;100.00
10606;BME280;5350;42.698;23.148;2023-03-22T12:33:47;93486.75;;;12.01;100.00
10606;BME280;5350;42.698;23.148;2023-03-22T12:36:16;93485.44;;;12.13;100.00
10606;BME280;5350;42.698;23.148;2023-03-22T12:38:47;93484.09;;;12.24;100.00
10606;BME280;5350;42.698;23.148;2023-03-22T12:41:20;93480.69;;;12.23;100.00
10606;BME280;5350;42.698;23.148;2023-03-22T12:43:53;93480.16;;;12.35;100.00
10606;BME280;5350;42.698;23.148;2023-03-22T12:46:24;93471.63;;;12.38;100.00
10606;BME280;5350;42.698;23.148;2023-03-22T12:48:54;93479.56;;;12.46;100.00
10606;BME280;5350;42.698;23.148;2023-03-22T12:51:23;93475.56;;;12.27;100.00
10606;BME280;5350;42.698;23.148;2023-03-22T12:53:53;93482.81;;;12.43;100.00
10606;BME280;5350;42.698;23.148;2023-03-22T12:56:22;93482.13;;;12.60;100.00
10606;BME280;5350;42.698;23.148;2023-03-22T12:58:53;93475.34;;;12.76;100.00
10606;BME280;5350;42.698;23.148;2023-03-22T13:01:29;93475.56;;;12.97;100.00
10606;BME280;5350;42.698;23.148;2023-03-22T13:03:57;93476.25;;;13.11;100.00
10606;BME280;5350;42.698;23.148;2023-03-22T13:06:33;93481.22;;;13.12;100.00
10606;BME280;5350;42.698;23.148;2023-03-22T13:09:34;93481.72;;;13.31;100.00
10606;BME280;5350;42.698;23.148;2023-03-22T13:12:32;93481.59;;;13.45;100.00
10606;BME280;5350;42.698;23.148;2023-03-22T13:17:46;93472.59;;;13.63;100.00
10606;BME280;5350;42.698;23.148;2023-03-22T13:20:25;93468.72;;;13.78;100.00